Time;durP1;ratioP1;P1;durP2;ratioP2;P2;SDS_P1;SDS_P2;PMS_P1;PMS_P2;Temp;Humidity;BMP_temperature;BMP_pressure;BME280_temperature;BME280_humidity;BME280_pressure;Samples;Min_cycle;Max_cycle;Signal;HPM_P1;HPM_P2
2023/02/15 00:00:40;;;;;;;53.33;30.60;;;;;;;-0.21;100.00;101462.06;10461814;28;20071;-75
2023/02/15 00:05:42;;;;;;;57.00;31.83;;;;;;;-0.28;100.00;101463.53;10463313;28;20033;-74
2023/02/15 00:10:44;;;;;;;59.78;31.40;;;;;;;-0.31;100.00;101462.53;10461291;28;20490;-73
2023/02/15 00:15:45;;;;;;;54.45;32.22;;;;;;;-0.31;100.00;101463.44;10461507;28;20041;-73
2023/02/15 00:20:47;;;;;;;62.20;31.38;;;;;;;-0.27;100.00;101454.06;10461449;28;20045;-74
2023/02/15 00:25:49;;;;;;;58.28;31.45;;;;;;;-0.20;100.00;101452.59;10465145;28;20037;-73
2023/02/15 00:30:51;;;;;;;61.08;31.67;;;;;;;-0.32;100.00;101455.63;10461442;28;20056;-73
2023/02/15 00:35:57;;;;;;;60.03;32.15;;;;;;;-0.37;100.00;101449.41;10442978;28;20041;-73
2023/02/15 00:41:02;;;;;;;63.65;31.70;;;;;;;-0.44;100.00;101447.44;10459371;28;20542;-73
2023/02/15 00:46:05;;;;;;;58.97;30.05;;;;;;;-0.48;100.00;101435.28;10460702;28;20410;-73
2023/02/15 00:51:07;;;;;;;57.72;30.27;;;;;;;-0.49;100.00;101433.47;10460355;28;20048;-73
2023/02/15 00:56:09;;;;;;;70.63;33.42;;;;;;;-0.35;100.00;101428.00;10460154;28;20094;-73
2023/02/15 01:01:14;;;;;;;66.28;30.58;;;;;;;-0.41;100.00;101424.31;10458462;28;20056;-73
2023/02/15 01:06:16;;;;;;;60.90;30.40;;;;;;;-0.46;100.00;101420.69;10531679;22;20086;-76
2023/02/15 01:11:24;;;;;;;59.40;30.45;;;;;;;-0.51;100.00;101418.81;10530442;28;20051;-76
2023/02/15 01:16:28;;;;;;;58.53;28.98;;;;;;;-0.52;100.00;101409.31;10528267;28;20501;-75
2023/02/15 01:21:30;;;;;;;54.42;29.65;;;;;;;-0.60;100.00;101415.91;10546001;28;20044;-76
2023/02/15 01:26:32;;;;;;;52.80;27.73;;;;;;;-0.65;100.00;101414.00;10545296;28;20032;-75
2023/02/15 01:31:33;;;;;;;55.90;27.73;;;;;;;-0.56;100.00;101409.16;10526515;28;20056;-77
2023/02/15 01:36:35;;;;;;;57.13;28.42;;;;;;;-0.63;100.00;101408.03;10527551;28;20417;-75
2023/02/15 01:41:37;;;;;;;68.28;30.30;;;;;;;-0.54;100.00;101394.59;10526549;28;20135;-76
2023/02/15 01:46:47;;;;;;;61.67;28.88;;;;;;;-0.52;100.00;101398.13;10545038;28;20113;-76
2023/02/15 01:51:52;;;;;;;63.10;30.60;;;;;;;-0.52;100.00;101375.75;10545219;28;20089;-77
2023/02/15 01:57:00;;;;;;;63.55;29.75;;;;;;;-0.62;100.00;101371.09;10545735;28;20066;-76
2023/02/15 02:02:06;;;;;;;60.88;29.83;;;;;;;-0.59;100.00;101365.13;10527614;28;20036;-76
2023/02/15 02:07:12;;;;;;;61.67;30.07;;;;;;;-0.54;100.00;101355.84;10544747;28;20067;-76
2023/02/15 02:12:18;;;;;;;58.78;29.33;;;;;;;-0.57;100.00;101359.22;10544848;28;20524;-75
2023/02/15 02:17:57;;;;;;;63.17;28.45;;;;;;;-0.57;100.00;101354.06;10544579;28;20046;-75
2023/02/15 02:23:02;;;;;;;57.58;26.52;;;;;;;-0.61;100.00;101344.44;10543899;28;20060;-76
2023/02/15 02:28:30;;;;;;;56.28;28.15;;;;;;;-0.56;100.00;101340.31;10525837;28;20044;-76
2023/02/15 02:34:09;;;;;;;61.28;29.60;;;;;;;-0.63;100.00;101340.91;10525667;28;20048;-75
2023/02/15 02:39:32;;;;;;;57.28;28.17;;;;;;;-0.64;100.00;101340.88;10526815;28;20050;-75
2023/02/15 02:44:45;;;;;;;45.28;25.27;;;;;;;-0.73;100.00;101340.53;10545269;28;20040;-76
2023/02/15 02:49:47;;;;;;;47.05;26.05;;;;;;;-0.63;100.00;101335.75;10525919;28;20095;-76
2023/02/15 02:54:49;;;;;;;59.47;27.05;;;;;;;-0.65;100.00;101339.13;10543924;28;20115;-76
2023/02/15 02:59:53;;;;;;;41.17;25.00;;;;;;;-0.71;100.00;101326.84;10525302;28;20531;-75
2023/02/15 03:05:03;;;;;;;49.35;24.35;;;;;;;-0.83;100.00;101326.44;10524196;28;20044;-76
2023/02/15 03:10:07;;;;;;;41.28;23.92;;;;;;;-0.87;100.00;101328.03;10542445;28;20114;-75
2023/02/15 03:15:18;;;;;;;42.70;24.38;;;;;;;-0.88;100.00;101320.25;10542315;28;20040;-75
2023/02/15 03:20:33;;;;;;;50.03;25.25;;;;;;;-0.78;100.00;101325.78;10525464;28;20055;-75
2023/02/15 03:25:45;;;;;;;44.67;23.55;;;;;;;-0.72;100.00;101329.38;10524814;28;20085;-76
2023/02/15 03:30:52;;;;;;;39.10;23.23;;;;;;;-0.79;100.00;101329.19;10508848;28;20055;-76
2023/02/15 03:36:04;;;;;;;;;;;;;;;-0.87;100.00;101334.91;10543800;28;20044;-75
2023/02/15 03:41:10;;;;;;;41.75;22.52;;;;;;;-1.00;100.00;101328.44;10541822;28;19920;-75
2023/02/15 03:46:32;;;;;;;44.22;22.10;;;;;;;-1.13;100.00;101324.53;10548591;28;20370;-76
2023/02/15 03:51:39;;;;;;;42.75;23.40;;;;;;;-1.20;100.00;101332.84;10550416;28;20055;-77
2023/02/15 04:01:56;;;;;;;45.60;23.45;;;;;;;-1.22;100.00;101326.78;10532876;28;20073;-77
2023/02/15 04:02:24;;;;;;;43.88;23.25;;;;;;;-1.10;100.00;101328.94;10550555;28;20050;-77
2023/02/15 04:07:25;;;;;;;43.10;21.67;;;;;;;-1.24;100.00;101330.09;10550246;28;20401;-76
2023/02/15 04:12:27;;;;;;;46.88;23.77;;;;;;;-1.20;100.00;101327.69;10532036;28;20111;-75
2023/02/15 04:17:29;;;;;;;42.90;21.90;;;;;;;-1.25;100.00;101320.63;10549467;28;20048;-76
2023/02/15 04:27:53;;;;;;;47.30;23.00;;;;;;;-1.29;100.00;101314.47;10549455;28;20096;-75
2023/02/15 04:32:56;;;;;;;39.53;20.80;;;;;;;-1.32;100.00;101314.38;10551953;28;20104;-75
2023/02/15 04:37:58;;;;;;;44.97;22.67;;;;;;;-1.27;100.00;101313.69;10549864;28;20051;-76
2023/02/15 04:43:00;;;;;;;44.80;22.08;;;;;;;-1.27;100.00;101315.41;10549749;28;20119;-76
2023/02/15 04:48:02;;;;;;;44.78;22.98;;;;;;;-1.11;100.00;101298.75;10546034;28;20071;-76
2023/02/15 04:53:04;;;;;;;46.88;22.65;;;;;;;-1.18;100.00;101302.84;10547619;28;20044;-75
2023/02/15 04:58:05;;;;;;;51.33;25.05;;;;;;;-1.11;100.00;101298.75;10546223;28;20370;-77
2023/02/15 05:03:07;;;;;;;37.85;21.17;;;;;;;-1.11;100.00;101299.63;10546360;28;20047;-76
2023/02/15 05:08:09;;;;;;;44.90;21.95;;;;;;;-1.06;100.00;101285.22;10547648;28;20032;-77
2023/02/15 05:13:11;;;;;;;43.35;22.90;;;;;;;-1.18;100.00;101284.78;10545886;28;20047;-75
2023/02/15 05:18:12;;;;;;;37.40;22.00;;;;;;;-1.00;100.00;101274.22;10527695;28;20054;-77
2023/02/15 05:23:14;;;;;;;38.05;20.90;;;;;;;-1.08;100.00;101273.94;10527163;28;20421;-75
2023/02/15 05:28:19;;;;;;;36.25;20.63;;;;;;;-1.03;100.00;101274.09;10510755;28;20048;-76
2023/02/15 05:33:20;;;;;;;39.47;22.38;;;;;;;-1.09;100.00;101273.91;10527668;28;20048;-77
2023/02/15 05:38:22;;;;;;;35.80;21.58;;;;;;;-1.20;100.00;101278.66;10529284;28;20054;-75
2023/02/15 05:43:25;;;;;;;39.53;22.10;;;;;;;-1.10;100.00;101280.78;10545176;28;20130;-75
2023/02/15 05:48:27;;;;;;;37.17;21.67;;;;;;;-0.94;100.00;101282.16;10546573;28;20420;-75
2023/02/15 05:53:31;;;;;;;33.45;21.13;;;;;;;-1.09;100.00;101276.50;10526527;28;20075;-76
2023/02/15 05:58:36;;;;;;;42.13;20.42;;;;;;;-1.06;100.00;101282.66;10525345;28;20054;-75
2023/02/15 06:03:37;;;;;;;35.53;21.08;;;;;;;-1.00;100.00;101283.69;10525607;28;20050;-75
2023/02/15 06:08:40;;;;;;;38.25;21.17;;;;;;;-0.90;100.00;101270.25;10543515;28;20067;-76
2023/02/15 06:13:42;;;;;;;33.58;20.60;;;;;;;-0.77;100.00;101281.03;10544517;28;20040;-76
2023/02/15 06:18:44;;;;;;;35.35;20.80;;;;;;;-0.84;100.00;101273.03;10525412;28;20115;-75
2023/02/15 06:23:46;;;;;;;37.20;19.67;;;;;;;-0.62;100.00;101285.88;10543704;28;20051;-75
2023/02/15 06:28:47;;;;;;;33.72;20.60;;;;;;;-0.80;100.00;101278.38;10542648;28;20042;-75
2023/02/15 06:33:49;;;;;;;33.92;18.80;;;;;;;-0.86;100.00;101279.88;10542522;28;20101;-75
2023/02/15 06:38:51;;;;;;;33.38;19.92;;;;;;;-0.84;100.00;101273.94;10542668;28;20059;-75
2023/02/15 06:43:53;;;;;;;24.60;17.90;;;;;;;-0.87;100.00;101276.41;10524185;28;20147;-76
2023/02/15 06:48:55;;;;;;;27.75;19.58;;;;;;;-0.79;100.00;101279.25;10523680;28;20040;-77
2023/02/15 06:53:57;;;;;;;30.40;19.73;;;;;;;-0.38;100.00;101264.25;10542498;28;20051;-75
2023/02/15 06:58:58;;;;;;;21.10;18.20;;;;;;;0.02;100.00;101265.50;10542835;28;20049;-75
2023/02/15 07:04:00;;;;;;;23.05;16.25;;;;;;;0.41;100.00;101266.69;10543032;28;20039;-77
2023/02/15 07:09:04;;;;;;;18.77;16.52;;;;;;;0.83;100.00;101260.97;10522881;28;20044;-79
2023/02/15 07:14:05;;;;;;;17.50;15.70;;;;;;;1.08;100.00;101259.03;10551419;28;20048;-78
2023/02/15 07:19:07;;;;;;;18.35;14.68;;;;;;;1.05;100.00;101251.19;10527353;28;20042;-78
2023/02/15 07:24:09;;;;;;;18.58;15.70;;;;;;;0.84;100.00;101246.31;10554047;28;20090;-76
2023/02/15 07:29:11;;;;;;;19.92;14.45;;;;;;;0.96;100.00;101244.91;10561591;28;20050;-79
2023/02/15 07:34:13;;;;;;;19.38;16.35;;;;;;;0.87;100.00;101241.22;10562995;28;20157;-78
2023/02/15 07:39:15;;;;;;;17.75;15.07;;;;;;;0.67;100.00;101238.97;10559292;28;20055;-78
2023/02/15 07:44:17;;;;;;;17.67;15.70;;;;;;;0.60;100.00;101234.44;10542489;28;20409;-77
2023/02/15 07:49:19;;;;;;;16.63;14.70;;;;;;;0.81;100.00;101229.00;10559018;28;20119;-77
2023/02/15 07:54:21;;;;;;;17.65;15.43;;;;;;;0.78;100.00;101221.13;10556775;28;20040;-77
2023/02/15 07:59:23;;;;;;;18.17;15.95;;;;;;;0.93;100.00;101216.38;10554449;28;20040;-77
2023/02/15 08:04:25;;;;;;;16.70;15.00;;;;;;;1.01;100.00;101214.84;10564751;28;20044;-78
2023/02/15 08:09:28;;;;;;;19.50;15.48;;;;;;;0.90;100.00;101203.34;10563504;28;20077;-77
2023/02/15 08:14:29;;;;;;;19.17;15.13;;;;;;;1.22;100.00;101205.88;10542651;28;20044;-78
2023/02/15 08:19:32;;;;;;;16.90;15.20;;;;;;;1.34;100.00;101198.41;10545922;28;20123;-78
2023/02/15 08:24:39;;;;;;;17.52;15.10;;;;;;;1.58;100.00;101202.41;10550858;28;20047;-77
2023/02/15 08:29:41;;;;;;;17.50;15.07;;;;;;;1.74;99.62;101197.63;10532251;28;20115;-77
2023/02/15 08:34:44;;;;;;;15.77;13.77;;;;;;;1.63;100.00;101201.69;10529298;28;20052;-76
2023/02/15 08:39:45;;;;;;;15.95;14.10;;;;;;;1.87;100.00;101190.13;10528692;28;20046;-76
2023/02/15 08:44:50;;;;;;;16.08;14.52;;;;;;;2.17;98.80;101187.28;10527706;28;20110;-77
2023/02/15 08:49:52;;;;;;;16.10;14.43;;;;;;;2.26;96.51;101179.72;10527731;28;20040;-76
2023/02/15 08:54:54;;;;;;;15.80;13.88;;;;;;;2.33;96.67;101185.91;10545610;28;20077;-75
2023/02/15 08:59:56;;;;;;;15.05;13.55;;;;;;;2.53;94.78;101176.81;10545154;28;20051;-76
2023/02/15 09:04:58;;;;;;;15.02;13.52;;;;;;;2.59;94.49;101173.44;10527012;28;20040;-76
2023/02/15 09:10:00;;;;;;;14.38;12.88;;;;;;;2.50;95.09;101175.00;10545771;28;20047;-76
2023/02/15 09:15:02;;;;;;;14.43;12.43;;;;;;;2.70;93.98;101171.91;10526720;28;20040;-76
2023/02/15 09:20:04;;;;;;;13.90;12.60;;;;;;;2.88;92.68;101164.47;10527088;28;20466;-76
2023/02/15 09:25:06;;;;;;;13.35;11.98;;;;;;;3.13;91.25;101164.88;10545663;28;20050;-77
2023/02/15 09:30:08;;;;;;;13.43;12.02;;;;;;;3.44;89.76;101169.69;10545943;28;20498;-76
2023/02/15 09:35:10;;;;;;;13.70;12.50;;;;;;;3.67;86.65;101166.56;10527572;28;20072;-77
2023/02/15 09:40:16;;;;;;;13.73;12.13;;;;;;;3.60;87.19;101169.94;10526610;28;20059;-77
2023/02/15 09:45:28;;;;;;;13.80;11.85;;;;;;;3.62;89.16;101155.22;10544801;28;20096;-77
2023/02/15 09:51:02;;;;;;;13.95;11.18;;;;;;;3.88;86.00;101166.00;10528421;28;20050;-76
2023/02/15 09:56:13;;;;;;;17.38;11.18;;;;;;;3.86;85.46;101152.13;10516740;28;20048;-77
2023/02/15 10:01:19;;;;;;;13.52;12.23;;;;;;;3.92;85.92;101147.84;10548559;28;20040;-78
2023/02/15 10:06:44;;;;;;;13.45;12.23;;;;;;;3.85;86.53;101135.66;10549795;28;20497;-78
2023/02/15 10:11:49;;;;;;;14.35;12.95;;;;;;;4.20;84.52;101138.66;10531114;28;20040;-78
2023/02/15 10:17:03;;;;;;;15.18;12.00;;;;;;;4.65;83.61;101136.53;10546525;28;20040;-78
2023/02/15 10:22:14;;;;;;;14.48;12.98;;;;;;;4.26;83.85;101132.66;10544933;28;20116;-77
2023/02/15 10:27:20;;;;;;;15.52;13.88;;;;;;;4.55;84.16;101130.38;10524359;28;20035;-77
2023/02/15 10:32:29;;;;;;;15.05;13.35;;;;;;;4.99;82.30;101132.53;10542404;28;20040;-77
2023/02/15 10:38:09;;;;;;;17.40;15.63;;;;;;;5.32;79.60;101108.47;10524101;28;20040;-77
2023/02/15 10:43:13;;;;;;;17.15;15.30;;;;;;;5.51;78.31;101099.00;10355525;28;20050;-77
2023/02/15 10:48:27;;;;;;;19.20;17.30;;;;;;;6.36;74.67;101098.53;10356327;28;20048;-77
2023/02/15 10:53:34;;;;;;;18.92;17.20;;;;;;;6.49;74.32;101092.47;10360560;28;20189;-77
2023/02/15 10:59:21;;;;;;;18.10;16.15;;;;;;;7.11;71.15;101097.72;10381390;28;20053;-77
2023/02/15 11:04:42;;;;;;;16.38;14.77;;;;;;;7.52;69.02;101085.44;10344932;28;20104;-78
2023/02/15 11:09:49;;;;;;;15.75;14.25;;;;;;;7.66;70.33;101082.81;10383638;28;20062;-77
2023/02/15 11:14:58;;;;;;;16.80;15.20;;;;;;;7.54;68.55;101070.63;10383239;28;20120;-77
2023/02/15 11:20:16;;;;;;;16.75;15.05;;;;;;;7.74;67.52;101064.44;10549813;28;20401;-78
2023/02/15 11:25:25;;;;;;;16.17;14.55;;;;;;;7.98;67.17;101066.13;10551691;28;20048;-76
2023/02/15 11:30:40;;;;;;;17.77;13.60;;;;;;;8.55;64.45;101062.31;10532222;28;20047;-77
2023/02/15 11:35:50;;;;;;;18.17;13.60;;;;;;;8.85;62.14;101060.31;10551760;28;20032;-77
2023/02/15 11:41:14;;;;;;;15.48;14.00;;;;;;;9.07;60.93;101053.13;10549114;28;20047;-77
2023/02/15 11:46:18;;;;;;;15.25;13.80;;;;;;;9.18;60.82;101060.91;10549660;28;20036;-76
2023/02/15 11:51:22;;;;;;;15.23;13.73;;;;;;;9.35;60.73;101046.75;10548938;28;20050;-76
2023/02/15 11:56:26;;;;;;;15.05;13.68;;;;;;;9.41;60.01;101048.44;10514434;28;20493;-78
2023/02/15 12:01:40;;;;;;;16.65;15.15;;;;;;;9.52;58.93;101040.47;10550302;28;20044;-78
2023/02/15 12:07:00;;;;;;;15.00;13.45;;;;;;;8.87;60.03;101032.34;10549374;28;20046;-76
2023/02/15 12:12:40;;;;;;;14.95;13.65;;;;;;;8.61;61.33;101026.47;10552063;28;20040;-77
2023/02/15 12:17:51;;;;;;;15.88;14.48;;;;;;;8.48;62.04;101031.78;10533438;28;20362;-80
2023/02/15 12:23:02;;;;;;;14.95;13.70;;;;;;;8.95;60.25;101020.06;10555661;28;20036;-78
2023/02/15 12:28:23;;;;;;;15.98;14.48;;;;;;;8.37;61.77;101015.28;10564283;28;20053;-79
2023/02/15 12:33:30;;;;;;;14.93;13.50;;;;;;;8.11;63.26;101007.56;10537626;28;20508;-80
2023/02/15 12:38:32;;;;;;;14.70;13.40;;;;;;;7.61;65.02;100992.09;10567296;28;20036;-79
2023/02/15 12:43:36;;;;;;;14.30;13.10;;;;;;;7.63;64.92;100993.00;10571504;28;20040;-78
2023/02/15 12:48:38;;;;;;;15.85;14.32;;;;;;;7.19;66.70;100981.81;10554757;28;20066;-78
2023/02/15 12:53:41;;;;;;;16.88;15.35;;;;;;;7.13;67.87;100974.00;10536429;28;20401;-78
2023/02/15 12:58:45;;;;;;;15.00;13.57;;;;;;;7.26;66.74;100973.06;10550901;28;20040;-80
2023/02/15 13:04:03;;;;;;;15.27;13.77;;;;;;;7.37;66.41;100970.41;10573050;22;20055;-73
2023/02/15 13:09:34;;;;;;;15.00;13.60;;;;;;;7.26;66.14;100967.84;10543594;28;20044;-73
2023/02/15 13:14:36;;;;;;;16.70;14.50;;;;;;;7.03;66.80;100974.84;10539168;28;20732;-72
2023/02/15 13:19:44;;;;;;;16.05;14.48;;;;;;;6.82;67.25;100970.56;10542671;28;20172;-72
2023/02/15 13:24:58;;;;;;;16.33;14.93;;;;;;;6.62;67.90;100967.97;10544645;28;20044;-73
2023/02/15 13:30:13;;;;;;;15.95;14.45;;;;;;;6.71;66.60;100974.91;10546331;28;20044;-73
2023/02/15 13:35:18;;;;;;;15.73;14.23;;;;;;;6.51;68.01;100965.38;10541933;28;20412;-71
2023/02/15 13:40:40;;;;;;;16.40;14.70;;;;;;;6.66;68.01;100976.66;10542355;28;20127;-73
2023/02/15 13:46:09;;;;;;;14.60;13.30;;;;;;;6.51;68.19;100970.59;10542389;28;20047;-72
2023/02/15 13:51:30;;;;;;;17.13;15.13;;;;;;;6.92;66.08;100968.81;10540679;28;20051;-73
2023/02/15 13:56:52;;;;;;;16.73;15.32;;;;;;;6.94;65.98;100974.88;10526440;28;20082;-73
2023/02/15 14:02:18;;;;;;;16.85;15.15;;;;;;;6.68;67.14;100978.38;10537520;28;20094;-73
2023/02/15 14:07:41;;;;;;;16.90;15.25;;;;;;;6.83;66.34;100969.69;10540803;28;20138;-73
2023/02/15 14:12:58;;;;;;;16.90;15.45;;;;;;;6.64;66.97;100968.84;10536593;28;20047;-72
2023/02/15 14:18:03;;;;;;;17.55;15.85;;;;;;;6.64;67.16;100963.63;10541642;28;20496;-72
2023/02/15 14:23:38;;;;;;;17.80;16.10;;;;;;;6.50;67.51;100962.72;10540538;28;20040;-73
2023/02/15 14:28:50;;;;;;;17.52;15.82;;;;;;;6.66;66.62;100954.03;10500813;28;20048;-72
2023/02/15 14:33:56;;;;;;;18.35;16.58;;;;;;;6.66;65.49;100961.84;10541061;28;20040;-73
2023/02/15 14:44:42;;;;;;;18.65;16.88;;;;;;;6.01;68.75;100962.69;10540169;28;20062;-76
2023/02/15 14:49:43;;;;;;;19.30;17.60;;;;;;;5.83;70.65;100959.16;10538823;28;20056;-75
2023/02/15 14:54:45;;;;;;;19.38;17.30;;;;;;;6.18;68.43;100966.22;10538154;28;20047;-74
2023/02/15 15:00:01;;;;;;;22.00;19.05;;;;;;;5.99;69.75;100967.94;10542066;28;20063;-72
2023/02/15 15:05:19;;;;;;;22.38;19.98;;;;;;;5.79;70.65;100967.84;10539592;28;20123;-72
2023/02/15 15:10:21;;;;;;;27.15;21.35;;;;;;;5.61;71.83;100965.16;10539342;28;20044;-73
2023/02/15 15:15:31;;;;;;;25.48;21.83;;;;;;;5.36;72.80;100969.44;10539491;28;20043;-72
2023/02/15 15:20:44;;;;;;;24.77;22.15;;;;;;;5.41;73.24;100972.06;10541627;28;20041;-73
2023/02/15 15:25:53;;;;;;;23.05;20.67;;;;;;;5.49;72.32;100972.94;10538029;28;20438;-73
2023/02/15 15:30:56;;;;;;;28.98;22.73;;;;;;;5.36;72.34;100963.31;10538977;28;20089;-73
2023/02/15 15:36:46;;;;;;;25.45;21.85;;;;;;;5.23;73.26;100955.47;10539059;28;20044;-73
2023/02/15 15:42:17;;;;;;;38.28;22.85;;;;;;;4.96;74.02;100960.56;10485371;28;20059;-73
2023/02/15 15:47:26;;;;;;;32.47;25.20;;;;;;;4.48;77.43;100951.53;10531170;28;20581;-74
2023/02/15 15:52:28;;;;;;;39.88;25.20;;;;;;;4.29;78.44;100955.69;10546063;28;20058;-73
2023/02/15 15:57:42;;;;;;;39.63;24.65;;;;;;;4.21;78.42;100949.59;10544913;28;20047;-74
2023/02/15 16:02:55;;;;;;;45.25;25.77;;;;;;;3.89;80.43;100955.31;10548699;28;20044;-73
2023/02/15 16:07:57;;;;;;;37.05;24.30;;;;;;;3.97;79.36;100953.69;10545961;28;20078;-73
2023/02/15 16:13:00;;;;;;;33.47;24.35;;;;;;;3.84;80.22;100944.00;10543640;28;20039;-73
2023/02/15 16:18:02;;;;;;;40.95;25.23;;;;;;;3.48;81.70;100949.69;10540752;28;20032;-73
2023/02/15 16:23:34;;;;;;;40.75;25.70;;;;;;;3.27;83.78;100945.09;10547401;28;20040;-72
2023/02/15 16:28:36;;;;;;;35.40;24.60;;;;;;;3.43;83.35;100944.44;10543758;28;20050;-73
2023/02/15 16:33:39;;;;;;;43.97;25.88;;;;;;;3.47;82.95;100948.81;10544923;28;20040;-74
2023/02/15 16:38:41;;;;;;;40.00;25.75;;;;;;;2.95;85.29;100940.34;10543904;28;20051;-73
2023/02/15 16:43:47;;;;;;;44.45;26.67;;;;;;;3.07;84.20;100944.84;10544773;28;20058;-73
2023/02/15 16:48:52;;;;;;;31.98;23.65;;;;;;;3.00;84.17;100941.28;10545428;28;20119;-73
2023/02/15 16:53:55;;;;;;;36.53;24.63;;;;;;;2.65;86.41;100942.50;10544116;28;20059;-73
2023/02/15 16:58:59;;;;;;;36.10;24.77;;;;;;;2.36;88.62;100939.47;10544952;28;20048;-73
2023/02/15 17:04:25;;;;;;;36.20;24.10;;;;;;;2.44;88.08;100940.47;10547079;28;20044;-73
2023/02/15 17:09:27;;;;;;;37.45;25.88;;;;;;;2.11;90.61;100938.19;10545970;28;20040;-72
2023/02/15 17:14:40;;;;;;;43.17;27.08;;;;;;;2.10;90.69;100937.31;10542324;28;20127;-73
2023/02/15 17:19:52;;;;;;;42.88;26.17;;;;;;;2.12;91.14;100940.81;10543600;28;20036;-73
2023/02/15 17:25:04;;;;;;;40.45;26.70;;;;;;;2.02;90.85;100946.69;10544539;28;20040;-73
2023/02/15 17:30:30;;;;;;;37.08;26.60;;;;;;;1.89;91.02;100948.19;10547981;28;20036;-73
2023/02/15 17:35:33;;;;;;;44.75;27.77;;;;;;;1.96;90.58;100942.28;10535903;28;20055;-73
2023/02/15 17:40:35;;;;;;;46.30;26.35;;;;;;;1.59;93.30;100945.00;10543104;28;20056;-73
2023/02/15 17:45:47;;;;;;;41.03;24.70;;;;;;;1.60;92.65;100944.19;10541350;28;20059;-73
2023/02/15 17:50:49;;;;;;;37.78;25.60;;;;;;;1.83;91.80;100931.66;10544734;28;20044;-73
2023/02/15 17:55:51;;;;;;;41.17;26.23;;;;;;;1.41;92.78;100935.16;10541998;28;20040;-73
2023/02/15 18:11:47;;;;;;;40.20;26.40;;;;;;;1.37;93.11;100938.53;10540476;28;20494;-74
2023/02/15 18:16:49;;;;;;;49.90;27.33;;;;;;;1.39;93.79;100927.38;10540924;28;20561;-74
2023/02/15 18:21:52;;;;;;;49.63;28.92;;;;;;;1.33;94.28;100932.44;10539599;28;20097;-73
2023/02/15 18:26:54;;;;;;;43.20;27.85;;;;;;;1.31;93.92;100925.47;10542837;28;20063;-74
2023/02/15 18:31:56;;;;;;;41.08;26.33;;;;;;;1.38;93.83;100930.81;10542697;28;20044;-74
2023/02/15 18:37:01;;;;;;;38.92;25.83;;;;;;;1.29;94.21;100919.41;10548664;28;20040;-74
2023/02/15 18:42:04;;;;;;;47.55;27.95;;;;;;;1.08;94.96;100931.06;10542946;28;20394;-74
2023/02/15 18:47:06;;;;;;;51.50;29.52;;;;;;;0.98;95.93;100926.53;10534312;28;20400;-73
2023/02/15 18:52:15;;;;;;;51.50;28.20;;;;;;;1.12;95.28;100930.28;10536345;28;20043;-74
2023/02/15 18:57:18;;;;;;;47.08;26.65;;;;;;;0.94;96.46;100929.91;10580920;28;20044;-75
2023/02/15 19:02:20;;;;;;;45.38;27.15;;;;;;;0.90;95.81;100928.09;10583882;28;20046;-74
2023/02/15 19:07:24;;;;;;;46.40;27.90;;;;;;;0.94;96.15;100935.94;10576251;22;20443;-78
2023/02/15 19:12:27;;;;;;;45.40;27.33;;;;;;;0.79;96.99;100925.25;10578826;28;20036;-77
2023/02/15 19:17:29;;;;;;;49.70;28.33;;;;;;;0.87;96.45;100936.66;10597601;28;20046;-78
2023/02/15 19:22:32;;;;;;;39.97;25.73;;;;;;;0.93;96.31;100921.25;10600638;28;20086;-78
2023/02/15 19:27:35;;;;;;;40.28;26.17;;;;;;;0.74;97.27;100921.69;10605668;28;20039;-79
2023/02/15 19:32:36;;;;;;;53.05;27.48;;;;;;;0.60;97.45;100925.69;10606986;28;20039;-79
2023/02/15 19:37:40;;;;;;;52.42;29.27;;;;;;;0.71;98.39;100909.56;10601133;28;20127;-77
2023/02/15 19:42:43;;;;;;;53.47;27.52;;;;;;;0.66;98.05;100912.88;10597989;28;20056;-78
2023/02/15 19:47:47;;;;;;;52.25;27.83;;;;;;;0.66;98.35;100903.38;10600248;28;20386;-77
2023/02/15 19:52:56;;;;;;;49.53;27.10;;;;;;;0.64;98.09;100897.31;10569116;28;20051;-78
2023/02/15 19:58:10;;;;;;;52.90;28.13;;;;;;;0.48;98.61;100890.03;10585205;28;20043;-78
2023/02/15 20:03:13;;;;;;;51.60;27.77;;;;;;;0.63;97.98;100889.53;10582029;28;20515;-78
2023/02/15 20:08:19;;;;;;;48.53;27.65;;;;;;;0.34;99.13;100888.88;10558820;28;20048;-78
2023/02/15 20:13:20;;;;;;;50.03;26.55;;;;;;;0.31;99.59;100865.50;10564080;28;20063;-78
2023/02/15 20:18:22;;;;;;;44.28;24.98;;;;;;;0.39;98.92;100870.03;10556148;28;20066;-79
2023/02/15 20:23:30;;;;;;;47.58;27.25;;;;;;;0.51;98.50;100869.44;10558603;28;20050;-79
2023/02/15 20:28:32;;;;;;;42.35;26.67;;;;;;;0.53;98.18;100857.38;10558021;28;20051;-79
2023/02/15 20:33:34;;;;;;;49.35;26.85;;;;;;;0.42;98.33;100864.94;10563611;28;20067;-79
2023/02/15 20:38:36;;;;;;;46.83;26.98;;;;;;;0.44;98.29;100852.91;10563691;28;20062;-79
2023/02/15 20:43:39;;;;;;;46.65;26.70;;;;;;;0.16;99.88;100861.75;10563272;28;20097;-79
2023/02/15 20:48:41;;;;;;;54.53;27.60;;;;;;;0.41;98.78;100850.25;10560638;28;20048;-79
2023/02/15 20:53:43;;;;;;;52.47;27.63;;;;;;;0.21;99.18;100856.66;10560060;28;20044;-78
2023/02/15 20:58:45;;;;;;;56.03;29.05;;;;;;;0.31;98.95;100856.06;10563154;28;20047;-80
2023/02/15 21:03:47;;;;;;;52.85;28.15;;;;;;;0.43;98.76;100851.16;10559461;28;20052;-80
2023/02/15 21:08:49;;;;;;;47.63;27.55;;;;;;;0.40;98.34;100857.97;10599496;28;20148;-79
2023/02/15 21:13:51;;;;;;;53.63;28.50;;;;;;;0.15;99.49;100848.78;10603109;28;20592;-79
2023/02/15 21:18:53;;;;;;;48.55;27.13;;;;;;;0.27;99.79;100851.66;10599525;28;20400;-78
2023/02/15 21:23:54;;;;;;;54.22;28.52;;;;;;;0.34;98.89;100845.78;10600646;28;20094;-78
2023/02/15 21:28:56;;;;;;;55.95;29.63;;;;;;;0.40;98.40;100838.16;10581361;28;20031;-79
2023/02/15 21:33:58;;;;;;;55.53;29.10;;;;;;;0.39;98.25;100832.94;10600557;28;20122;-78
2023/02/15 21:39:00;;;;;;;47.38;27.50;;;;;;;0.34;98.47;100829.38;10593130;28;20134;-79
2023/02/15 21:49:32;;;;;;;54.25;27.85;;;;;;;0.35;97.58;100831.13;10597687;28;20043;-78
2023/02/15 21:54:34;;;;;;;49.03;27.55;;;;;;;0.32;97.55;100839.69;10582849;28;20082;-78
2023/02/15 21:59:35;;;;;;;50.08;26.42;;;;;;;0.29;97.23;100831.00;10602574;28;20059;-78
2023/02/15 22:04:38;;;;;;;54.03;28.13;;;;;;;0.23;98.14;100830.03;10584245;28;20048;-78
2023/02/15 22:09:40;;;;;;;50.10;27.35;;;;;;;0.16;98.65;100820.38;10595409;28;20046;-79
2023/02/15 22:14:44;;;;;;;48.97;27.17;;;;;;;0.21;97.94;100823.06;10577268;28;20058;-78
2023/02/15 22:19:48;;;;;;;54.83;26.67;;;;;;;0.26;97.79;100831.78;10580995;28;20050;-78
2023/02/15 22:24:50;;;;;;;44.58;25.70;;;;;;;0.32;97.13;100824.19;10598377;28;20036;-78
2023/02/15 22:29:53;;;;;;;47.33;27.08;;;;;;;0.33;97.32;100820.75;10596193;28;20546;-78
2023/02/15 22:34:55;;;;;;;47.63;26.30;;;;;;;0.27;96.85;100822.31;10590536;28;20058;-78
2023/02/15 22:39:57;;;;;;;42.33;24.45;;;;;;;0.34;97.34;100819.03;10572800;28;20027;-77
2023/02/15 22:44:58;;;;;;;53.42;27.45;;;;;;;0.20;97.54;100826.50;10591042;28;20071;-79
2023/02/15 22:50:01;;;;;;;43.45;25.08;;;;;;;0.07;97.75;100827.03;10576410;28;20055;-79
2023/02/15 22:55:03;;;;;;;39.30;23.60;;;;;;;0.18;98.13;100826.47;10600444;28;20044;-78
2023/02/15 23:00:06;;;;;;;44.13;24.15;;;;;;;0.23;98.62;100824.84;10585003;28;20047;-77
2023/02/15 23:05:17;;;;;;;40.97;25.23;;;;;;;0.14;98.58;100834.13;10604225;28;20039;-78
2023/02/15 23:10:21;;;;;;;41.65;25.23;;;;;;;0.35;98.10;100826.81;10581467;28;20416;-77
2023/02/15 23:15:23;;;;;;;36.95;23.65;;;;;;;0.06;98.85;100830.47;10602534;28;20118;-78
2023/02/15 23:20:24;;;;;;;39.65;24.25;;;;;;;0.07;98.25;100832.22;10603904;28;20063;-78
2023/02/15 23:25:26;;;;;;;37.05;23.83;;;;;;;0.22;98.02;100828.28;10580243;28;20447;-77
2023/02/15 23:30:28;;;;;;;45.35;24.67;;;;;;;0.12;97.84;100836.66;10596903;28;20389;-76